Time;durP1;ratioP1;P1;durP2;ratioP2;P2;SDS_P1;SDS_P2;PMS_P1;PMS_P2;Temp;Humidity;BMP_temperature;BMP_pressure;BME280_temperature;BME280_humidity;BME280_pressure;Samples;Min_cycle;Max_cycle;Signal;HPM_P1;HPM_P2
2021/12/24 00:00:34;;;;;;;100.97;29.73;;;;;;;8.39;100.00;100374.09;5031845;28;20025;-49
2021/12/24 00:02:59;;;;;;;91.00;29.27;;;;;;;8.38;100.00;100368.91;5030701;28;20033;-50
2021/12/24 00:05:25;;;;;;;109.68;31.00;;;;;;;8.41;100.00;100368.56;5032258;28;20025;-49
2021/12/24 00:07:51;;;;;;;98.53;30.80;;;;;;;8.42;100.00;100372.91;5029947;28;20503;-47
2021/12/24 00:10:17;;;;;;;116.18;31.85;;;;;;;8.44;100.00;100366.38;5012299;28;20398;-50
2021/12/24 00:12:54;;;;;;;111.47;33.38;;;;;;;8.45;100.00;100365.38;5012272;28;20116;-48
2021/12/24 00:18:23;;;;;;;112.28;32.22;;;;;;;8.48;100.00;100373.06;5001125;28;20280;-49
2021/12/24 00:37:09;;;;;;;93.43;27.35;;;;;;;8.53;100.00;100359.06;5012129;28;20052;-42
2021/12/24 00:39:41;;;;;;;109.07;29.05;;;;;;;8.52;100.00;100371.66;5012195;28;20105;-41
2021/12/24 00:42:07;;;;;;;92.30;27.70;;;;;;;8.59;100.00;100360.22;5015469;28;20064;-42
2021/12/24 00:44:32;;;;;;;106.88;27.67;;;;;;;8.59;100.00;100368.28;5016009;28;20050;-42
2021/12/24 00:46:57;;;;;;;78.72;24.17;;;;;;;8.61;100.00;100363.53;5015889;28;20088;-42
2021/12/24 00:49:23;;;;;;;99.65;25.70;;;;;;;8.61;100.00;100366.22;5015660;28;20029;-42
2021/12/24 00:52:06;;;;;;;109.05;25.95;;;;;;;8.62;100.00;100365.22;5016056;28;20057;-42
2021/12/24 00:57:16;;;;;;;94.95;27.98;;;;;;;8.63;100.00;100373.06;5035632;28;20111;-42
2021/12/24 00:59:41;;;;;;;94.70;24.40;;;;;;;8.63;100.00;100373.06;5035741;28;20022;-42
2021/12/24 01:02:06;;;;;;;86.50;24.80;;;;;;;8.65;100.00;100372.91;5036388;28;20036;-42
2021/12/24 01:04:32;;;;;;;81.78;23.10;;;;;;;8.65;100.00;100370.22;5032725;28;20048;-42
2021/12/24 01:06:57;;;;;;;96.78;24.95;;;;;;;8.65;100.00;100376.41;5016993;28;20053;-42
2021/12/24 01:09:22;;;;;;;65.45;23.33;;;;;;;8.67;100.00;100365.53;5016368;28;20404;-42
2021/12/24 01:11:48;;;;;;;92.82;23.98;;;;;;;8.69;100.00;100368.81;5015467;28;20029;-41
2021/12/24 01:14:13;;;;;;;71.97;22.92;;;;;;;8.70;100.00;100373.19;5016890;28;20049;-42
2021/12/24 01:16:49;;;;;;;77.60;22.73;;;;;;;8.70;100.00;100383.94;5034998;28;20064;-41
2021/12/24 01:19:20;;;;;;;71.07;24.08;;;;;;;8.71;100.00;100374.84;5035228;28;20473;-41
2021/12/24 01:22:20;;;;;;;77.88;21.55;;;;;;;8.72;100.00;100379.22;5035094;28;20975;-42
2021/12/24 01:24:50;;;;;;;70.85;19.98;;;;;;;8.73;100.00;100383.56;5022520;28;20563;-42
2021/12/24 01:27:33;;;;;;;87.63;21.48;;;;;;;8.69;100.00;100377.75;5034766;28;20393;-42
2021/12/24 01:42:47;;;;;;;62.05;17.10;;;;;;;8.70;100.00;100370.53;5042850;28;19917;-42
2021/12/24 01:45:24;;;;;;;69.28;17.83;;;;;;;8.70;100.00;100368.66;5041341;28;20511;-42
2021/12/24 01:47:51;;;;;;;71.10;17.00;;;;;;;8.71;100.00;100380.22;5034641;28;20401;-42
2021/12/24 01:50:17;;;;;;;74.85;16.38;;;;;;;8.74;100.00;100369.97;5034482;28;20540;-42
2021/12/24 01:52:42;;;;;;;57.67;15.52;;;;;;;8.71;100.00;100356.06;5033152;28;20029;-42
2021/12/24 01:55:09;;;;;;;55.05;15.23;;;;;;;8.68;100.00;100356.44;5022719;28;20051;-41
2021/12/24 01:57:39;;;;;;;51.53;14.30;;;;;;;8.71;100.00;100358.75;5033004;28;20041;-42
2021/12/24 02:00:08;;;;;;;53.10;13.18;;;;;;;8.69;100.00;100360.78;5033234;28;20052;-42
2021/12/24 02:02:33;;;;;;;54.47;14.48;;;;;;;8.66;100.00;100372.75;5033930;28;20389;-42
2021/12/24 02:04:59;;;;;;;66.10;16.20;;;;;;;8.64;100.00;100371.25;5030703;28;20025;-42
2021/12/24 02:07:24;;;;;;;68.03;16.95;;;;;;;8.64;100.00;100380.13;5033970;28;20237;-43
2021/12/24 02:09:49;;;;;;;59.75;16.30;;;;;;;8.62;100.00;100381.31;5034002;28;20029;-42
2021/12/24 02:12:16;;;;;;;57.92;17.95;;;;;;;8.63;100.00;100378.44;5033240;28;20477;-42
2021/12/24 02:14:43;;;;;;;61.97;18.17;;;;;;;8.66;100.00;100394.19;5018274;28;20025;-41
2021/12/24 02:30:37;;;;;;;45.10;14.35;;;;;;;8.65;100.00;100378.28;5033919;28;20074;-42
2021/12/24 02:33:03;;;;;;;64.70;15.35;;;;;;;8.63;100.00;100373.06;5033551;28;20029;-43
2021/12/24 02:35:29;;;;;;;54.42;16.17;;;;;;;8.61;100.00;100385.84;5032031;28;20033;-43
2021/12/24 02:37:54;;;;;;;49.63;14.05;;;;;;;8.62;100.00;100389.38;5033752;28;20568;-42
2021/12/24 02:40:20;;;;;;;51.28;13.77;;;;;;;8.62;100.00;100387.50;5033865;28;20531;-42
2021/12/24 02:42:50;;;;;;;59.25;15.98;;;;;;;8.63;100.00;100383.81;5033354;28;20443;-42
2021/12/24 02:45:16;;;;;;;55.72;17.60;;;;;;;8.64;100.00;100379.31;5025238;28;20041;-42
2021/12/24 02:47:57;;;;;;;54.67;16.50;;;;;;;8.65;100.00;100375.59;5013720;28;20033;-42
2021/12/24 02:55:33;;;;;;;56.25;14.75;;;;;;;8.64;100.00;100388.19;5022988;28;20076;-42
2021/12/24 02:57:59;;;;;;;47.10;14.85;;;;;;;8.63;100.00;100375.75;5013319;28;20053;-42
2021/12/24 03:00:27;;;;;;;51.80;14.55;;;;;;;8.64;100.00;100371.25;5012015;28;20069;-42
2021/12/24 03:02:53;;;;;;;56.35;14.82;;;;;;;8.62;100.00;100365.22;5011561;28;20030;-42
2021/12/24 03:05:20;;;;;;;50.88;13.75;;;;;;;8.61;100.00;100380.50;5021041;28;20030;-42
2021/12/24 03:07:46;;;;;;;48.75;14.60;;;;;;;8.61;100.00;100379.63;5027287;28;20025;-42
2021/12/24 03:10:15;;;;;;;55.03;13.15;;;;;;;8.60;100.00;100384.16;5014849;28;20029;-41
2021/12/24 03:12:43;;;;;;;45.55;12.40;;;;;;;8.59;100.00;100379.84;5033399;28;20477;-42
2021/12/24 03:15:10;;;;;;;44.45;12.00;;;;;;;8.57;100.00;100374.63;5033310;28;20086;-42
2021/12/24 03:17:35;;;;;;;37.03;11.73;;;;;;;8.56;100.00;100375.66;5029377;28;20029;-42
2021/12/24 03:20:08;;;;;;;45.70;11.90;;;;;;;8.58;100.00;100378.16;5033078;28;20033;-43
2021/12/24 03:25:28;;;;;;;54.60;11.75;;;;;;;8.54;100.00;100380.38;5016986;28;20030;-42
2021/12/24 03:27:53;;;;;;;57.67;12.45;;;;;;;8.52;100.00;100379.69;5020517;28;20029;-42
2021/12/24 03:30:19;;;;;;;54.72;12.45;;;;;;;8.51;100.00;100380.72;5015276;28;20096;-42
2021/12/24 03:32:44;;;;;;;50.00;12.82;;;;;;;8.51;100.00;100372.69;5032836;28;20387;-43
2021/12/24 03:35:09;;;;;;;46.83;11.38;;;;;;;8.55;100.00;100376.66;5032855;28;20068;-42
2021/12/24 03:37:35;;;;;;;44.42;10.75;;;;;;;8.55;100.00;100371.28;5027414;28;20029;-42
2021/12/24 03:40:00;;;;;;;48.45;10.00;;;;;;;8.52;100.00;100371.66;5013133;28;20066;-42
2021/12/24 03:42:26;;;;;;;46.25;11.43;;;;;;;8.51;100.00;100374.53;5013012;28;20022;-42
2021/12/24 03:44:58;;;;;;;42.55;10.32;;;;;;;8.49;100.00;100363.97;5013048;28;20022;-42
2021/12/24 03:47:26;;;;;;;53.10;12.40;;;;;;;8.48;100.00;100378.41;5014187;28;20036;-42
2021/12/24 03:54:59;;;;;;;62.28;10.60;;;;;;;8.46;100.00;100372.38;5012920;28;20044;-42
2021/12/24 03:57:39;;;;;;;50.35;9.52;;;;;;;8.44;100.00;100366.38;5013866;28;20061;-42
2021/12/24 04:00:08;;;;;;;49.40;9.40;;;;;;;8.42;100.00;100365.69;5012616;28;20026;-42
2021/12/24 04:02:33;;;;;;;54.20;9.98;;;;;;;8.40;100.00;100366.91;5012919;28;20041;-42
2021/12/24 04:04:58;;;;;;;56.45;9.43;;;;;;;8.36;100.00;100366.41;5011923;28;20073;-43
2021/12/24 04:07:24;;;;;;;49.83;8.73;;;;;;;8.33;100.00;100361.41;5021013;28;20034;-42
2021/12/24 04:10:00;;;;;;;38.50;8.88;;;;;;;8.29;100.00;100368.13;5032560;28;20025;-43
2021/12/24 04:12:25;;;;;;;38.17;9.00;;;;;;;8.26;100.00;100376.53;5031602;28;20025;-43
2021/12/24 04:14:52;;;;;;;48.53;8.15;;;;;;;8.22;100.00;100375.22;5032270;28;20032;-42
2021/12/24 04:17:18;;;;;;;51.22;9.48;;;;;;;8.24;100.00;100378.53;5029090;28;20029;-42
2021/12/24 04:25:11;;;;;;;55.67;8.20;;;;;;;8.21;100.00;100376.22;5016735;28;20064;-43
2021/12/24 04:27:36;;;;;;;34.58;7.97;;;;;;;8.22;100.00;100385.94;5016961;28;20081;-42
2021/12/24 04:30:09;;;;;;;69.18;8.23;;;;;;;8.20;100.00;100382.59;5016655;28;20026;-41
2021/12/24 04:51:27;;;;;;;47.47;7.65;;;;;;;8.09;100.00;100382.00;5023044;28;20370;-43
2021/12/24 05:02:11;;;;;;;54.20;8.75;;;;;;;7.89;100.00;100376.25;5021004;28;20108;-43
2021/12/24 05:04:46;;;;;;;50.42;7.47;;;;;;;7.88;100.00;100376.44;5015913;28;20478;-42
2021/12/24 05:07:58;;;;;;;42.05;8.70;;;;;;;7.87;100.00;100378.28;5016071;28;20465;-42
2021/12/24 05:09:59;;;;;;;;;;;;;;;7.83;100.00;100378.81;5020199;28;20496;-42
2021/12/24 05:12:25;;;;;;;47.53;8.32;;;;;;;7.79;100.00;100375.63;5034795;28;19936;-42
2021/12/24 05:14:50;;;;;;;40.30;7.45;;;;;;;7.76;100.00;100377.81;5036431;28;20049;-43
2021/12/24 05:17:24;;;;;;;65.60;8.65;;;;;;;7.74;100.00;100378.00;5036349;28;20053;-43
2021/12/24 05:22:33;;;;;;;46.70;8.20;;;;;;;7.67;100.00;100374.34;5017682;28;20045;-42
2021/12/24 05:25:00;;;;;;;55.13;8.43;;;;;;;7.65;100.00;100384.41;5031665;28;20033;-41
2021/12/24 05:27:25;;;;;;;54.90;7.40;;;;;;;7.63;100.00;100381.06;5016775;28;20469;-42
2021/12/24 05:29:50;;;;;;;55.55;8.45;;;;;;;7.60;100.00;100376.88;5032160;28;20022;-42
2021/12/24 05:32:16;;;;;;;55.50;8.18;;;;;;;7.59;100.00;100380.59;5035134;28;20033;-41
2021/12/24 05:34:41;;;;;;;60.60;9.38;;;;;;;7.58;100.00;100380.75;5035053;28;20342;-42
2021/12/24 05:37:06;;;;;;;58.30;8.15;;;;;;;7.59;100.00;100383.25;5034943;28;20057;-41
2021/12/24 05:39:34;;;;;;;46.08;8.95;;;;;;;7.60;100.00;100382.25;5028955;28;20034;-41
2021/12/24 05:42:00;;;;;;;77.03;9.18;;;;;;;7.63;100.00;100387.25;5014941;28;20473;-41
2021/12/24 05:44:25;;;;;;;68.18;12.30;;;;;;;7.64;100.00;100388.94;5015360;28;20029;-42
2021/12/24 05:46:50;;;;;;;63.47;10.10;;;;;;;7.66;100.00;100383.38;5014995;28;20389;-41
2021/12/24 05:49:16;;;;;;;64.78;9.18;;;;;;;7.70;100.00;100382.88;5020563;28;20034;-41
2021/12/24 05:51:42;;;;;;;80.07;10.63;;;;;;;7.71;100.00;100378.34;5025029;28;20037;-42
2021/12/24 05:54:07;;;;;;;63.50;8.65;;;;;;;7.73;100.00;100386.22;5032869;28;20038;-41
2021/12/24 05:56:32;;;;;;;58.30;8.77;;;;;;;7.76;100.00;100391.22;5034815;28;20040;-41
2021/12/24 05:58:58;;;;;;;62.35;8.75;;;;;;;7.77;100.00;100398.25;5034096;28;20080;-42
2021/12/24 06:01:23;;;;;;;56.10;9.00;;;;;;;7.81;100.00;100396.88;5028991;28;20032;-41
2021/12/24 06:03:49;;;;;;;55.38;8.25;;;;;;;7.81;100.00;100404.94;5034393;28;20033;-41
2021/12/24 06:06:15;;;;;;;43.72;7.38;;;;;;;7.83;100.00;100392.19;5019620;28;20088;-40
2021/12/24 06:08:40;;;;;;;52.00;7.65;;;;;;;7.80;100.00;100397.91;5011678;28;20045;-41
2021/12/24 06:11:06;;;;;;;57.08;9.60;;;;;;;7.76;100.00;100384.00;5015535;28;20110;-40
2021/12/24 06:13:32;;;;;;;50.95;8.73;;;;;;;7.76;100.00;100380.50;5025700;28;20061;-42
2021/12/24 06:15:57;;;;;;;53.55;8.40;;;;;;;7.75;100.00;100384.19;5031530;28;20029;-41
2021/12/24 06:18:25;;;;;;;48.33;8.07;;;;;;;7.74;100.00;100382.50;5031205;28;20541;-39
2021/12/24 06:20:52;;;;;;;47.65;8.43;;;;;;;7.70;100.00;100380.19;5014960;28;20428;-41
2021/12/24 06:23:20;;;;;;;46.53;7.32;;;;;;;7.68;100.00;100384.88;5015224;28;20029;-40
2021/12/24 06:25:46;;;;;;;56.13;8.25;;;;;;;7.63;100.00;100381.88;5022891;28;20025;-41
2021/12/24 06:28:11;;;;;;;49.30;7.78;;;;;;;7.61;100.00;100378.56;5038217;28;20628;-41
2021/12/24 06:30:38;;;;;;;46.65;7.25;;;;;;;7.59;100.00;100374.41;5030805;28;20029;-40
2021/12/24 06:33:03;;;;;;;58.67;7.38;;;;;;;7.57;100.00;100384.44;5042915;28;20033;-42
2021/12/24 06:35:29;;;;;;;43.15;7.53;;;;;;;7.56;100.00;100378.25;5050958;28;20089;-41
2021/12/24 06:37:56;;;;;;;55.67;7.95;;;;;;;7.54;100.00;100377.59;5049920;28;20052;-41
2021/12/24 06:40:22;;;;;;;49.08;8.68;;;;;;;7.54;100.00;100377.59;5034388;28;20029;-42
2021/12/24 06:42:47;;;;;;;53.72;8.35;;;;;;;7.53;100.00;100377.75;5019363;28;20485;-41
2021/12/24 06:45:13;;;;;;;45.08;7.70;;;;;;;7.52;100.00;100384.13;5019445;28;20452;-42
2021/12/24 06:47:38;;;;;;;53.15;7.00;;;;;;;7.55;100.00;100391.81;5033938;28;20048;-40
2021/12/24 06:50:05;;;;;;;54.42;9.27;;;;;;;7.57;100.00;100382.59;5037021;28;20041;-41
2021/12/24 06:52:30;;;;;;;53.03;8.35;;;;;;;7.59;100.00;100385.09;5031740;28;20025;-41
2021/12/24 06:54:56;;;;;;;53.42;7.60;;;;;;;7.58;100.00;100378.94;5030714;28;20025;-41
2021/12/24 06:57:23;;;;;;;57.42;7.70;;;;;;;7.57;100.00;100387.94;5030351;28;20179;-40
2021/12/24 06:59:49;;;;;;;37.83;6.70;;;;;;;7.59;100.00;100385.94;5030324;28;20489;-41
2021/12/24 07:02:14;;;;;;;45.60;5.97;;;;;;;7.62;100.00;100385.59;5029682;28;20036;-39
2021/12/24 07:04:40;;;;;;;40.53;6.25;;;;;;;7.61;100.00;100388.44;5029846;28;20029;-41
2021/12/24 07:07:05;;;;;;;59.53;6.82;;;;;;;7.62;100.00;100380.22;5038367;28;20033;-41
2021/12/24 07:09:31;;;;;;;56.72;6.82;;;;;;;7.61;100.00;100378.56;5024949;28;20029;-42
2021/12/24 07:11:56;;;;;;;48.47;5.32;;;;;;;7.63;100.00;100381.06;5030067;28;20110;-41
2021/12/24 07:14:23;;;;;;;55.20;6.05;;;;;;;7.62;100.00;100390.13;5030119;28;20127;-43
2021/12/24 07:16:49;;;;;;;44.00;5.63;;;;;;;7.59;100.00;100398.50;5042340;28;20054;-42
2021/12/24 07:19:14;;;;;;;49.22;6.43;;;;;;;7.60;100.00;100382.25;5046121;28;20274;-41
2021/12/24 07:21:41;;;;;;;54.88;6.65;;;;;;;7.61;100.00;100383.94;5036083;28;20030;-40
2021/12/24 07:24:07;;;;;;;60.95;6.05;;;;;;;7.59;100.00;100383.25;5028343;28;20063;-42
2021/12/24 07:26:33;;;;;;;52.70;5.60;;;;;;;7.60;100.00;100371.53;5016317;28;20077;-41
2021/12/24 07:28:58;;;;;;;51.05;5.15;;;;;;;7.62;100.00;100379.41;5033876;28;20076;-40
2021/12/24 07:31:23;;;;;;;59.00;5.28;;;;;;;7.62;100.00;100380.22;5038279;28;20036;-42
2021/12/24 07:33:49;;;;;;;43.17;5.40;;;;;;;7.61;100.00;100386.59;5039127;28;20543;-42
2021/12/24 07:36:14;;;;;;;64.22;7.13;;;;;;;7.62;100.00;100385.59;5049867;28;20033;-41
2021/12/24 07:38:40;;;;;;;58.75;6.05;;;;;;;7.62;100.00;100368.69;5042836;28;20037;-41
2021/12/24 07:41:06;;;;;;;53.10;5.50;;;;;;;7.65;100.00;100381.72;5030205;28;20504;-41
2021/12/24 07:43:31;;;;;;;48.15;4.63;;;;;;;7.68;100.00;100390.25;5029404;28;20021;-41
2021/12/24 07:45:57;;;;;;;54.08;5.03;;;;;;;7.69;100.00;100386.56;5028119;28;20408;-40
2021/12/24 07:48:30;;;;;;;55.72;6.05;;;;;;;7.70;100.00;100387.41;5018619;28;20478;-41
2021/12/24 07:53:23;;;;;;;44.10;4.40;;;;;;;7.71;100.00;100378.34;5024666;28;20505;-41
2021/12/24 07:55:49;;;;;;;41.83;5.05;;;;;;;7.69;100.00;100373.19;5028171;28;20030;-42
2021/12/24 07:58:16;;;;;;;59.47;6.25;;;;;;;7.67;100.00;100377.88;5024351;28;20049;-42
2021/12/24 08:00:44;;;;;;;42.83;4.40;;;;;;;7.66;100.00;100365.50;5034501;28;20499;-41
2021/12/24 08:03:10;;;;;;;52.25;4.93;;;;;;;7.66;100.00;100381.56;5039967;28;20032;-40
2021/12/24 08:05:40;;;;;;;46.10;5.55;;;;;;;7.65;100.00;100379.88;5019273;28;20405;-40
2021/12/24 08:08:07;;;;;;;52.53;6.82;;;;;;;7.65;100.00;100382.56;5016199;28;20426;-39
2021/12/24 08:10:33;;;;;;;47.15;5.53;;;;;;;7.66;100.00;100391.41;5017092;28;20042;-41
2021/12/24 08:12:59;;;;;;;47.40;5.22;;;;;;;7.68;100.00;100384.06;5023581;28;20034;-41
2021/12/24 08:15:24;;;;;;;54.13;6.05;;;;;;;7.68;100.00;100389.41;5024371;28;20397;-41
2021/12/24 08:17:50;;;;;;;59.08;5.18;;;;;;;7.70;100.00;100390.06;5011541;28;20084;-42
2021/12/24 08:20:15;;;;;;;56.10;6.90;;;;;;;7.74;100.00;100388.72;5014118;28;20587;-42
2021/12/24 08:22:41;;;;;;;44.38;5.03;;;;;;;7.77;100.00;100383.03;5018203;28;20477;-43
2021/12/24 08:25:08;;;;;;;63.65;6.28;;;;;;;7.81;100.00;100388.84;5018861;28;20073;-42
2021/12/24 08:27:35;;;;;;;39.65;4.15;;;;;;;7.83;100.00;100384.16;5042865;28;20021;-42
2021/12/24 08:30:02;;;;;;;43.53;4.88;;;;;;;7.84;100.00;100393.84;5015772;28;20036;-43
2021/12/24 08:32:27;;;;;;;64.38;5.30;;;;;;;7.86;100.00;100389.16;5012361;28;20038;-43
2021/12/24 08:34:55;;;;;;;40.05;5.45;;;;;;;7.89;100.00;100392.31;5022873;28;20029;-42
2021/12/24 08:37:20;;;;;;;46.60;4.20;;;;;;;7.90;100.00;100388.66;5017884;28;20034;-43
2021/12/24 08:39:45;;;;;;;50.00;5.30;;;;;;;7.91;100.00;100378.75;5029341;28;20037;-43
2021/12/24 08:42:11;;;;;;;37.85;3.97;;;;;;;7.95;100.00;100379.22;5021016;28;20054;-42
2021/12/24 08:44:37;;;;;;;38.00;5.00;;;;;;;8.01;100.00;100384.72;5021326;28;20041;-43
2021/12/24 08:47:04;;;;;;;44.08;4.63;;;;;;;8.03;100.00;100388.06;5031674;28;20545;-42
2021/12/24 08:49:30;;;;;;;47.38;4.35;;;;;;;8.07;100.00;100393.91;5031676;28;20034;-43
2021/12/24 08:51:56;;;;;;;65.45;7.22;;;;;;;8.09;100.00;100395.41;5028241;28;20087;-42
2021/12/24 08:54:24;;;;;;;38.38;4.50;;;;;;;8.07;99.83;100384.00;5015335;28;20034;-41
2021/12/24 08:56:50;;;;;;;47.08;6.40;;;;;;;8.08;99.67;100393.75;5018838;28;20504;-42
2021/12/24 08:59:15;;;;;;;41.58;4.78;;;;;;;8.10;99.96;100383.66;5010842;28;20065;-41
2021/12/24 09:01:42;;;;;;;55.38;5.75;;;;;;;8.18;99.49;100389.97;5024830;28;20034;-42
2021/12/24 09:04:09;;;;;;;44.33;4.53;;;;;;;8.16;99.43;100397.34;5025534;28;20051;-42
2021/12/24 09:06:34;;;;;;;47.47;5.22;;;;;;;8.16;99.43;100402.72;5028994;28;20047;-43
2021/12/24 09:09:00;;;;;;;61.00;6.68;;;;;;;8.16;99.30;100395.50;5024167;28;20029;-41
2021/12/24 09:11:26;;;;;;;28.25;4.78;;;;;;;8.18;99.59;100396.16;5032228;28;20036;-41
2021/12/24 09:13:51;;;;;;;48.97;5.30;;;;;;;8.18;99.57;100395.34;5026521;28;20106;-41
2021/12/24 09:16:17;;;;;;;69.15;6.70;;;;;;;8.23;99.37;100392.97;5019761;28;20117;-41
2021/12/24 09:18:43;;;;;;;46.80;5.03;;;;;;;8.24;99.23;100394.63;5025948;28;20568;-41
2021/12/24 09:21:15;;;;;;;47.95;5.15;;;;;;;8.24;99.38;100387.44;5039379;28;20028;-41
2021/12/24 09:23:43;;;;;;;51.60;6.00;;;;;;;8.26;99.29;100393.44;5049397;28;20024;-42
2021/12/24 09:26:08;;;;;;;59.30;5.30;;;;;;;8.25;99.52;100380.22;5039723;28;20044;-43
2021/12/24 09:28:34;;;;;;;46.75;5.75;;;;;;;8.28;99.43;100382.53;5046415;28;20477;-41
2021/12/24 09:30:59;;;;;;;59.75;7.88;;;;;;;8.27;99.30;100375.53;5040385;28;20029;-42
2021/12/24 09:33:24;;;;;;;46.92;6.45;;;;;;;8.27;99.11;100376.34;5040859;28;20048;-41
2021/12/24 09:35:50;;;;;;;36.78;6.07;;;;;;;8.27;99.12;100386.25;5046734;28;20422;-42
2021/12/24 09:38:15;;;;;;;58.13;6.82;;;;;;;8.25;99.20;100380.22;5051576;28;20553;-42
2021/12/24 09:40:40;;;;;;;42.80;6.53;;;;;;;8.21;99.27;100382.41;5038122;28;20529;-41
2021/12/24 09:43:06;;;;;;;44.78;6.32;;;;;;;8.24;99.20;100392.81;5049774;28;20017;-41
2021/12/24 09:45:31;;;;;;;52.63;7.93;;;;;;;8.23;98.87;100392.97;5037997;28;20474;-41
2021/12/24 09:47:57;;;;;;;60.15;7.15;;;;;;;8.25;99.14;100380.22;5038336;28;20108;-41
2021/12/24 09:50:24;;;;;;;44.42;7.35;;;;;;;8.24;99.26;100379.41;5049447;28;20081;-42
2021/12/24 09:52:50;;;;;;;45.58;6.25;;;;;;;8.21;99.02;100379.72;5036369;28;20022;-42
2021/12/24 09:55:20;;;;;;;53.13;6.47;;;;;;;8.22;98.81;100381.41;5048336;28;20040;-41
2021/12/24 09:57:47;;;;;;;47.88;6.43;;;;;;;8.25;98.93;100390.94;5034639;28;20046;-42
2021/12/24 10:00:15;;;;;;;58.70;6.95;;;;;;;8.24;98.77;100383.91;5047541;28;20477;-42
2021/12/24 10:02:44;;;;;;;60.67;7.10;;;;;;;8.26;98.80;100385.38;5037555;28;20042;-41
2021/12/24 10:05:37;;;;;;;57.10;7.10;;;;;;;8.30;98.62;100383.22;5045539;28;20034;-42
2021/12/24 10:08:07;;;;;;;40.30;7.07;;;;;;;8.23;98.18;100388.44;5038892;28;20039;-42
2021/12/24 10:10:40;;;;;;;38.08;6.18;;;;;;;8.29;98.76;100392.25;5029224;28;20029;-40
2021/12/24 10:13:25;;;;;;;45.15;7.07;;;;;;;8.26;98.56;100387.25;5015966;28;20038;-41
2021/12/24 10:15:55;;;;;;;59.92;10.38;;;;;;;8.29;98.55;100381.53;5023196;28;20477;-41
2021/12/24 10:18:39;;;;;;;45.75;7.78;;;;;;;8.27;98.17;100388.94;5026795;28;20060;-40
2021/12/24 10:21:05;;;;;;;38.33;6.80;;;;;;;8.28;98.24;100390.59;5027812;28;20025;-41
2021/12/24 10:23:56;;;;;;;49.40;6.68;;;;;;;8.26;97.81;100376.53;5021325;28;20061;-41
2021/12/24 10:26:33;;;;;;;42.60;6.28;;;;;;;8.31;97.80;100379.50;5019537;28;20030;-40
2021/12/24 10:29:09;;;;;;;40.58;6.53;;;;;;;8.30;97.83;100389.41;5030444;28;20434;-41
2021/12/24 10:31:38;;;;;;;45.85;6.93;;;;;;;8.32;97.76;100381.16;5029217;28;20030;-42
2021/12/24 10:34:27;;;;;;;52.95;6.75;;;;;;;8.34;97.43;100379.13;5030661;28;20033;-41
2021/12/24 10:36:59;;;;;;;48.58;6.70;;;;;;;8.32;97.65;100387.38;5015692;28;20509;-41
2021/12/24 10:39:26;;;;;;;40.05;6.55;;;;;;;8.37;97.50;100389.50;5044301;28;20029;-42
2021/12/24 10:41:53;;;;;;;40.58;8.25;;;;;;;8.41;97.24;100388.19;5039632;28;20025;-42
2021/12/24 10:44:21;;;;;;;56.28;7.25;;;;;;;8.41;97.07;100384.66;5030331;28;20116;-41
2021/12/24 10:47:08;;;;;;;38.03;6.13;;;;;;;8.41;96.88;100385.50;5018418;28;20037;-41
2021/12/24 10:49:51;;;;;;;46.83;6.15;;;;;;;8.41;96.45;100377.44;5030343;28;20092;-40
2021/12/24 10:55:03;;;;;;;47.58;7.13;;;;;;;8.49;96.46;100388.13;5030809;28;20521;-40
2021/12/24 10:57:37;;;;;;;51.22;6.63;;;;;;;8.48;96.23;100383.78;5028509;28;20119;-41
2021/12/24 11:00:26;;;;;;;53.83;6.40;;;;;;;8.46;96.30;100383.13;5022874;28;20045;-42
2021/12/24 11:02:53;;;;;;;42.35;5.70;;;;;;;8.41;95.94;100382.00;5014959;28;20053;-43
2021/12/24 11:05:27;;;;;;;40.90;5.53;;;;;;;8.43;95.99;100379.97;5028866;28;20053;-42
2021/12/24 11:07:53;;;;;;;46.35;6.22;;;;;;;8.40;95.91;100377.63;5028546;28;20030;-40
2021/12/24 11:10:24;;;;;;;45.65;5.88;;;;;;;8.41;96.04;100379.31;5016540;28;20513;-41
2021/12/24 11:12:55;;;;;;;43.17;6.13;;;;;;;8.47;95.81;100382.09;5024287;28;20018;-41
2021/12/24 11:15:46;;;;;;;43.08;6.07;;;;;;;8.45;95.66;100384.13;5026124;28;20033;-41
2021/12/24 11:18:24;;;;;;;40.88;6.28;;;;;;;8.48;95.79;100381.09;5025291;28;20038;-41
2021/12/24 11:20:57;;;;;;;34.65;5.25;;;;;;;8.46;95.63;100380.44;5031880;28;20018;-41
2021/12/24 11:23:24;;;;;;;37.03;5.38;;;;;;;8.49;95.16;100377.38;5019912;28;20029;-41
2021/12/24 11:25:55;;;;;;;40.55;5.53;;;;;;;8.42;95.40;100379.09;5030731;28;20368;-41
2021/12/24 11:28:23;;;;;;;31.80;5.88;;;;;;;8.46;96.14;100377.75;5017292;28;20087;-41
2021/12/24 11:30:52;;;;;;;47.40;6.38;;;;;;;8.46;95.57;100380.44;5012789;28;20349;-40
2021/12/24 11:33:28;;;;;;;50.58;7.35;;;;;;;8.47;95.75;100379.41;5026203;28;20035;-40
2021/12/24 11:35:56;;;;;;;38.03;5.85;;;;;;;8.42;95.67;100378.28;5048090;28;20037;-40
2021/12/24 11:38:40;;;;;;;41.88;6.88;;;;;;;8.47;95.60;100382.09;5025300;28;20371;-41
2021/12/24 11:41:11;;;;;;;45.17;6.68;;;;;;;8.51;95.73;100380.72;5008842;28;20033;-40
2021/12/24 11:43:39;;;;;;;48.42;5.95;;;;;;;8.46;95.36;100372.38;5021803;28;20037;-40
2021/12/24 11:46:06;;;;;;;48.50;5.75;;;;;;;8.57;94.92;100374.63;5020731;28;20033;-41
2021/12/24 11:48:33;;;;;;;40.78;5.68;;;;;;;8.59;95.23;100362.91;5009788;28;20081;-40
2021/12/24 11:51:00;;;;;;;34.80;4.97;;;;;;;8.63;94.92;100364.19;5019844;28;20029;-40
2021/12/24 11:53:26;;;;;;;35.08;5.40;;;;;;;8.66;94.83;100366.50;5011435;28;20053;-40
2021/12/24 11:55:51;;;;;;;44.97;6.13;;;;;;;8.66;94.82;100371.88;5011888;28;20088;-41
2021/12/24 11:58:20;;;;;;;32.72;4.75;;;;;;;8.55;94.80;100371.28;5021598;28;20045;-41
2021/12/24 12:00:52;;;;;;;38.83;5.32;;;;;;;8.54;95.18;100364.28;5019544;28;20037;-41
2021/12/24 12:03:40;;;;;;;55.75;5.88;;;;;;;8.58;95.12;100359.38;5010487;28;20026;-40
2021/12/24 12:06:10;;;;;;;36.88;4.85;;;;;;;8.60;94.91;100364.56;5010734;28;20118;-40
2021/12/24 12:08:40;;;;;;;37.33;5.00;;;;;;;8.60;95.62;100362.72;5014442;28;20040;-40
2021/12/24 12:11:20;;;;;;;47.78;5.55;;;;;;;8.64;95.55;100360.53;5016488;28;20036;-40
2021/12/24 12:13:56;;;;;;;33.13;5.05;;;;;;;8.71;94.96;100369.50;5020569;28;20026;-41
2021/12/24 12:16:27;;;;;;;30.85;5.82;;;;;;;8.68;94.67;100365.31;5012809;28;20030;-42
2021/12/24 12:25:09;;;;;;;37.35;4.60;;;;;;;8.67;93.94;100369.03;5012736;28;20409;-42
2021/12/24 12:27:40;;;;;;;39.85;5.57;;;;;;;8.64;93.81;100365.88;5008592;28;20038;-40
2021/12/24 12:30:19;;;;;;;38.13;5.15;;;;;;;8.61;93.89;100371.59;5012777;28;20030;-40
2021/12/24 12:32:44;;;;;;;37.17;5.85;;;;;;;8.60;93.73;100367.25;5015047;28;20030;-40
2021/12/24 12:35:10;;;;;;;42.60;6.63;;;;;;;8.57;93.66;100381.84;5027304;28;20030;-40
2021/12/24 12:37:46;;;;;;;42.03;6.70;;;;;;;8.53;94.02;100375.16;5024398;28;20095;-42
2021/12/24 12:40:18;;;;;;;40.40;5.35;;;;;;;8.59;94.40;100368.28;5013036;28;20048;-40
2021/12/24 12:42:50;;;;;;;36.40;5.85;;;;;;;8.59;94.04;100366.41;5015191;28;20103;-41
2021/12/24 12:45:21;;;;;;;41.28;5.55;;;;;;;8.61;93.90;100371.59;5030843;28;20029;-40
2021/12/24 12:47:53;;;;;;;25.80;4.93;;;;;;;8.65;94.36;100364.84;5029003;28;20061;-41
2021/12/24 12:50:20;;;;;;;45.03;6.32;;;;;;;8.69;93.92;100363.47;5019921;28;20120;-40
2021/12/24 12:52:46;;;;;;;30.83;4.95;;;;;;;8.68;94.33;100365.31;5012929;28;20117;-40
2021/12/24 12:55:32;;;;;;;37.58;5.38;;;;;;;8.67;94.90;100369.03;5030210;28;20097;-39
2021/12/24 12:58:21;;;;;;;31.67;4.78;;;;;;;8.64;94.79;100368.56;5029047;28;20128;-40
2021/12/24 13:01:10;;;;;;;40.75;5.28;;;;;;;8.55;94.08;100363.25;5025579;28;20129;-40
2021/12/24 13:03:55;;;;;;;34.45;5.20;;;;;;;8.55;94.87;100357.88;5024289;28;20124;-40
2021/12/24 13:06:21;;;;;;;33.17;5.20;;;;;;;8.50;95.11;100354.91;5021543;28;20140;-40
2021/12/24 13:08:47;;;;;;;40.70;6.07;;;;;;;8.50;94.84;100354.06;5032441;28;20124;-40
2021/12/24 13:11:15;;;;;;;36.63;5.47;;;;;;;8.50;95.28;100356.75;5025764;28;20075;-41